Saint-Eleuthere, Canada
Current Conditions -  °F | °C
As of 7:40 PM on Thursday 18 Dec 2014 (Local Time) from KFVE Reporting Station
Overcast Overcast  
Wind Chill:   Ceiling: 1500
Heat Index: 23°   Visibility: 10mi
Dew Point: 19°   Wind: 21mph
Humidity: 85%   Direction: 340°NNW
Pressure: 29.62"   Gusts: 30mph
Location:  47.48°N, 69.28°W
Report Text: KFVE 190040Z AUTO 34018G26KT 10SM BKN015 OVC050 M05/M07 A2962 RMK AO2 PK WND 34030/0015 UPB20E22SNE20 P0000 T10501072
Loading
Personal Weather Stations






























Interactive Weather Map New forecast layout! Learn more

10-Day Weather Forecast

Advertisements
Track Severe Weather on mobile